Kaleb_Jordan’s ATC Tracking Thread - [Closed] @KDEN

Closed at KFLL

METAR - KFLL 031353Z 00000KT 10SM SCT024 BKN250 31/24 A2998 RMK AO2 SLP152 T03110244

Server - Training

• Pattern Work Allowed
• Departing Runways - 10L
• Landing Runways 10R
• No Intersection Departures

Hope to see some people spawn at the little gem hidden between Miami and West Palm Beach :)

2 Likes

Closed at KDEN

METAR - KDEN 031653Z 16005KT 10SM FEW100 27/08 A2997 RMK AO2 SLP067 T02720083

Server - Training

• Pattern Work Allowed
• Departing Runways - 17R and 16L
• Landing Runways - 17L and 16R
• No Intersection Departures

Hope to see some people spawn at this amazing airport :)

This topic was automatically closed 90 days after the last reply. New replies are no longer allowed.